Time;durP1;ratioP1;P1;durP2;ratioP2;P2;SDS_P1;SDS_P2;PMS_P1;PMS_P2;Temp;Humidity;BMP_temperature;BMP_pressure;BME280_temperature;BME280_humidity;BME280_pressure;Samples;Min_cycle;Max_cycle;Signal;HPM_P1;HPM_P2
2023/12/22 00:01:40;;;;;;;4.80;1.70;;;;;;;4.52;90.80;96683.34;4997562;28;20690;-63
2023/12/22 00:04:08;;;;;;;7.73;2.43;;;;;;;4.60;89.49;96686.41;4996170;28;20211;-63
2023/12/22 00:06:36;;;;;;;4.20;1.77;;;;;;;4.66;89.81;96698.91;4998337;28;20235;-63
2023/12/22 00:09:05;;;;;;;6.50;1.50;;;;;;;4.69;89.71;96701.34;4993732;28;20203;-63
2023/12/22 00:11:33;;;;;;;7.00;1.93;;;;;;;4.65;89.43;96688.78;4992489;28;20274;-64
2023/12/22 00:14:01;;;;;;;7.23;1.77;;;;;;;4.62;89.67;96699.09;4985088;28;20685;-62
2023/12/22 00:16:29;;;;;;;6.80;1.80;;;;;;;4.58;88.67;96689.03;4989202;28;20216;-63
2023/12/22 00:18:57;;;;;;;7.23;1.57;;;;;;;4.58;88.70;96683.09;4987858;28;20204;-62
2023/12/22 00:21:27;;;;;;;9.27;2.30;;;;;;;4.58;86.79;96688.19;4986172;28;20239;-60
2023/12/22 00:23:55;;;;;;;5.90;1.70;;;;;;;4.58;85.92;96678.00;4991594;28;20278;-63
2023/12/22 00:26:24;;;;;;;2.83;1.53;;;;;;;4.59;86.18;96685.56;4986605;28;20284;-62
2023/12/22 00:28:52;;;;;;;4.70;1.47;;;;;;;4.57;85.65;96687.38;5002382;28;20697;-63
2023/12/22 00:31:20;;;;;;;5.27;2.23;;;;;;;4.58;85.23;96688.19;4996367;28;20243;-62
2023/12/22 00:33:49;;;;;;;7.60;1.93;;;;;;;4.57;83.23;96677.19;4998484;28;20211;-66
2023/12/22 00:36:17;;;;;;;3.80;1.50;;;;;;;4.58;82.86;96693.31;4996103;28;20235;-62
2023/12/22 00:38:45;;;;;;;4.43;1.80;;;;;;;4.59;82.14;96694.94;4996460;28;20204;-63
2023/12/22 00:41:13;;;;;;;7.70;2.60;;;;;;;4.61;81.35;96708.47;4994234;28;20295;-65
2023/12/22 00:43:43;;;;;;;3.57;1.57;;;;;;;4.65;80.92;96704.91;4996129;28;20215;-65
2023/12/22 00:46:11;;;;;;;6.50;2.33;;;;;;;4.64;80.80;96726.19;4996766;28;20627;-62
2023/12/22 00:48:38;;;;;;;5.43;1.60;;;;;;;4.64;80.31;96730.44;5001716;28;20208;-66
2023/12/22 00:51:07;;;;;;;4.17;1.83;;;;;;;4.62;80.70;96694.00;4999173;28;20216;-62
2023/12/22 00:53:35;;;;;;;6.90;1.90;;;;;;;4.59;80.72;96735.75;4994177;28;20258;-63
2023/12/22 00:56:03;;;;;;;6.17;2.10;;;;;;;4.54;79.99;96732.56;4999869;28;20211;-63
2023/12/22 00:58:31;;;;;;;7.53;1.37;;;;;;;4.54;78.49;96715.53;4991432;28;20244;-63
2023/12/22 01:01:02;;;;;;;5.67;2.10;;;;;;;4.55;78.82;96731.66;4991385;28;20203;-64
2023/12/22 01:03:30;;;;;;;5.90;2.03;;;;;;;4.53;77.65;96736.84;4995759;28;20200;-64
2023/12/22 01:05:58;;;;;;;8.10;1.80;;;;;;;4.55;77.94;96729.13;4993728;28;20567;-60
2023/12/22 01:08:26;;;;;;;5.40;1.77;;;;;;;4.55;77.80;96718.91;4994287;28;20302;-63
2023/12/22 01:10:54;;;;;;;6.13;2.07;;;;;;;4.54;77.94;96732.56;4996317;28;20570;-64
2023/12/22 01:13:22;;;;;;;6.17;1.80;;;;;;;4.52;78.21;96724.13;5000819;28;20223;-62
2023/12/22 01:15:50;;;;;;;7.47;2.00;;;;;;;4.50;77.66;96725.94;4990484;28;20208;-63
2023/12/22 01:18:19;;;;;;;8.47;2.40;;;;;;;4.49;77.67;96708.97;4989118;28;20196;-61
2023/12/22 01:20:47;;;;;;;5.77;1.60;;;;;;;4.45;77.93;96704.88;4990539;28;20642;-62
2023/12/22 01:23:15;;;;;;;8.60;1.97;;;;;;;4.42;78.08;96705.84;4998273;28;20610;-63
2023/12/22 01:25:43;;;;;;;6.50;2.10;;;;;;;4.41;76.90;96718.66;4991269;28;20204;-64
2023/12/22 01:28:11;;;;;;;5.63;2.53;;;;;;;4.36;76.67;96703.53;5000782;28;20211;-62
2023/12/22 01:30:39;;;;;;;10.13;2.43;;;;;;;4.35;76.70;96718.00;5000851;28;20266;-63
2023/12/22 01:33:06;;;;;;;8.00;2.07;;;;;;;4.33;76.29;96708.75;4991501;28;20200;-66
2023/12/22 01:35:36;;;;;;;6.30;2.10;;;;;;;4.35;76.68;96718.00;4990530;28;20574;-66
2023/12/22 01:38:04;;;;;;;7.20;2.53;;;;;;;4.34;75.75;96711.28;4997856;28;20703;-63
2023/12/22 01:40:32;;;;;;;9.63;2.33;;;;;;;4.34;75.35;96724.00;5002932;28;20212;-64
2023/12/22 01:43:01;;;;;;;7.20;2.30;;;;;;;4.33;74.58;96684.09;4998685;28;20659;-62
2023/12/22 01:45:29;;;;;;;9.37;2.50;;;;;;;4.34;75.48;96706.16;4993096;28;20257;-64
2023/12/22 01:47:58;;;;;;;6.33;2.00;;;;;;;4.34;75.31;96712.97;4992986;28;20204;-63
2023/12/22 01:50:26;;;;;;;7.13;1.93;;;;;;;4.36;75.06;96713.75;4992415;28;20235;-63
2023/12/22 01:52:56;;;;;;;9.83;2.73;;;;;;;4.34;74.60;96718.91;4992121;28;20203;-64
2023/12/22 01:55:24;;;;;;;8.67;2.03;;;;;;;4.36;75.02;96708.66;4992272;28;20212;-63
2023/12/22 01:57:52;;;;;;;10.63;2.63;;;;;;;4.34;74.76;96715.50;4999320;28;20248;-63
2023/12/22 02:00:21;;;;;;;7.60;1.80;;;;;;;4.33;74.73;96707.03;4996372;28;20632;-64
2023/12/22 02:02:49;;;;;;;6.10;2.10;;;;;;;4.32;75.09;96724.94;4994055;28;20593;-63
2023/12/22 02:05:18;;;;;;;12.70;2.53;;;;;;;4.28;75.22;96703.84;4998978;28;20196;-62
2023/12/22 02:07:49;;;;;;;5.77;1.90;;;;;;;4.31;75.10;96711.38;4992255;28;20567;-64
2023/12/22 02:10:19;;;;;;;5.07;2.37;;;;;;;4.32;74.80;96707.94;4995269;28;20311;-65
2023/12/22 02:12:47;;;;;;;6.67;2.53;;;;;;;4.33;74.82;96704.50;4992429;28;20667;-65
2023/12/22 02:15:15;;;;;;;8.50;2.30;;;;;;;4.34;74.43;96698.53;4994702;28;20295;-64
2023/12/22 02:17:48;;;;;;;9.30;2.73;;;;;;;4.35;74.58;96701.91;4992860;28;20674;-62
2023/12/22 02:20:17;;;;;;;5.80;1.70;;;;;;;4.36;74.06;96696.72;4991235;28;20596;-63
2023/12/22 02:22:52;;;;;;;9.83;2.70;;;;;;;4.35;74.25;96712.91;4992888;28;20580;-63
2023/12/22 02:25:20;;;;;;;8.03;2.13;;;;;;;4.40;74.06;96696.59;4995392;28;20293;-63
2023/12/22 02:27:50;;;;;;;11.13;2.57;;;;;;;4.42;74.44;96712.66;4991753;28;20585;-63
2023/12/22 02:30:27;;;;;;;11.77;2.33;;;;;;;4.42;73.80;96715.19;4991515;28;20673;-62
2023/12/22 02:32:59;;;;;;;10.67;2.27;;;;;;;4.42;73.97;96703.31;4986918;28;20215;-64
2023/12/22 02:35:30;;;;;;;10.57;2.77;;;;;;;4.41;73.72;96706.72;4996991;28;20285;-62
2023/12/22 02:38:01;;;;;;;9.07;2.13;;;;;;;4.41;73.99;96695.72;4990777;28;20713;-66
2023/12/22 02:40:30;;;;;;;9.40;2.40;;;;;;;4.38;73.89;96686.44;4989576;28;20288;-59
2023/12/22 02:42:59;;;;;;;10.57;2.70;;;;;;;4.35;74.12;96707.00;4992093;28;20199;-64
2023/12/22 02:45:27;;;;;;;7.73;2.90;;;;;;;4.33;74.67;96701.13;4998456;28;20203;-64
2023/12/22 02:47:55;;;;;;;7.90;3.17;;;;;;;4.32;74.65;96707.94;5000384;28;20763;-64
2023/12/22 02:50:23;;;;;;;8.60;1.93;;;;;;;4.32;74.69;96692.66;4991197;28;20223;-63
2023/12/22 02:52:51;;;;;;;9.03;3.13;;;;;;;4.32;74.62;96691.81;4997297;28;20215;-63
2023/12/22 02:55:20;;;;;;;13.37;2.80;;;;;;;4.32;74.49;96677.34;4993049;28;20294;-63
2023/12/22 02:57:48;;;;;;;6.43;2.50;;;;;;;4.32;73.87;96692.66;4997657;28;20724;-62
2023/12/22 03:00:17;;;;;;;11.53;3.17;;;;;;;4.35;73.92;96679.78;4993259;28;20204;-65
2023/12/22 03:02:45;;;;;;;3.83;1.70;;;;;;;4.35;74.08;96704.44;4990640;28;20291;-65
2023/12/22 03:05:13;;;;;;;8.77;2.13;;;;;;;4.34;73.33;96675.59;4996233;28;20745;-63
2023/12/22 03:07:41;;;;;;;11.53;2.50;;;;;;;4.36;73.57;96696.72;4989946;28;20207;-62
2023/12/22 03:10:10;;;;;;;6.80;2.10;;;;;;;4.35;73.88;96687.44;4994489;28;20927;-64
2023/12/22 03:12:39;;;;;;;8.03;2.67;;;;;;;4.33;73.92;96717.22;4991287;28;20211;-64
2023/12/22 03:15:08;;;;;;;8.07;2.33;;;;;;;4.27;75.65;96694.56;4992998;28;20264;-63
2023/12/22 03:17:36;;;;;;;12.23;2.40;;;;;;;4.18;76.87;96674.53;5000806;28;20742;-62
2023/12/22 03:20:06;;;;;;;13.80;2.47;;;;;;;4.10;78.24;96707.97;4996662;28;20673;-62
2023/12/22 03:22:34;;;;;;;9.27;2.20;;;;;;;4.02;78.54;96694.69;4994092;28;20235;-65
2023/12/22 03:25:02;;;;;;;10.23;2.33;;;;;;;3.97;78.78;96690.66;4992513;28;20200;-64
2023/12/22 03:27:29;;;;;;;6.57;2.37;;;;;;;3.92;78.96;96692.56;4994069;28;20200;-64
2023/12/22 03:29:59;;;;;;;7.30;2.17;;;;;;;3.90;79.52;96705.34;4994031;28;20212;-62
2023/12/22 03:32:27;;;;;;;8.63;2.93;;;;;;;3.84;79.80;96686.06;4990215;28;20219;-65
2023/12/22 03:34:55;;;;;;;11.10;3.50;;;;;;;3.81;80.29;96698.91;4991736;28;20260;-63
2023/12/22 03:37:23;;;;;;;5.13;2.10;;;;;;;3.78;79.71;96676.09;4994265;28;20240;-66
2023/12/22 03:39:51;;;;;;;8.13;2.20;;;;;;;3.79;80.10;96677.78;4996453;28;20204;-66
2023/12/22 03:42:19;;;;;;;6.87;2.10;;;;;;;3.79;79.66;96710.88;4991107;28;20748;-65
2023/12/22 03:44:50;;;;;;;8.63;2.97;;;;;;;3.80;78.91;96709.16;4996573;28;20215;-63
2023/12/22 03:47:19;;;;;;;9.67;2.80;;;;;;;3.81;78.58;96691.25;5001496;28;20230;-63
2023/12/22 03:49:47;;;;;;;10.43;2.20;;;;;;;3.82;79.50;96700.56;5001366;28;20566;-63
2023/12/22 03:52:16;;;;;;;10.63;3.03;;;;;;;3.80;79.08;96688.78;4998273;28;20266;-63
2023/12/22 03:54:44;;;;;;;7.27;2.30;;;;;;;3.79;79.35;96710.88;4999497;28;20318;-61
2023/12/22 03:57:12;;;;;;;9.60;2.43;;;;;;;3.74;79.08;96701.75;4995830;28;20344;-63
2023/12/22 03:59:41;;;;;;;8.43;2.20;;;;;;;3.73;79.59;96707.72;4995270;28;20573;-63
2023/12/22 04:02:09;;;;;;;11.40;2.70;;;;;;;3.74;79.54;96704.28;4990210;28;20200;-62
2023/12/22 04:04:40;;;;;;;8.40;2.70;;;;;;;3.72;79.05;96695.88;4993460;28;20215;-63
2023/12/22 04:07:08;;;;;;;9.23;2.57;;;;;;;3.73;79.47;96708.56;4997257;28;20235;-64
2023/12/22 04:09:38;;;;;;;8.37;2.00;;;;;;;3.74;79.29;96705.13;4994628;28;20235;-63
2023/12/22 04:12:07;;;;;;;11.00;2.67;;;;;;;3.76;78.45;96708.44;4996406;28;20287;-63
2023/12/22 04:14:35;;;;;;;8.27;2.47;;;;;;;3.77;78.31;96704.19;4995800;28;20243;-63
2023/12/22 04:17:03;;;;;;;8.40;2.83;;;;;;;3.77;78.83;96727.09;4995695;28;20577;-64
2023/12/22 04:19:32;;;;;;;8.87;2.67;;;;;;;3.77;78.05;96715.19;4991957;28;20208;-63
2023/12/22 04:22:02;;;;;;;10.17;2.67;;;;;;;3.77;77.65;96709.28;5004280;28;20701;-62
2023/12/22 04:24:30;;;;;;;8.80;2.40;;;;;;;3.76;77.58;96682.97;4994553;28;20199;-61
2023/12/22 04:26:58;;;;;;;8.63;2.80;;;;;;;3.78;77.35;96710.91;4999879;28;20295;-63
2023/12/22 04:29:26;;;;;;;9.33;2.97;;;;;;;3.76;76.83;96695.72;4996897;28;20214;-63
2023/12/22 04:31:55;;;;;;;12.30;3.03;;;;;;;3.74;76.79;96702.56;4995493;28;20216;-64
2023/12/22 04:34:23;;;;;;;9.77;2.37;;;;;;;3.76;76.54;96702.53;4988546;28;20234;-64
2023/12/22 04:36:51;;;;;;;11.97;2.63;;;;;;;3.76;76.26;96703.34;4997091;28;20272;-63
2023/12/22 04:39:20;;;;;;;9.67;3.17;;;;;;;3.74;76.28;96689.84;4989046;28;20203;-64
2023/12/22 04:41:51;;;;;;;11.20;3.10;;;;;;;3.72;76.12;96695.88;5000860;28;20648;-62
2023/12/22 04:44:20;;;;;;;9.10;3.00;;;;;;;3.72;76.15;96696.72;4995710;28;20255;-63
2023/12/22 04:46:48;;;;;;;10.00;2.70;;;;;;;3.69;76.55;96696.84;4997311;28;20200;-64
2023/12/22 04:49:16;;;;;;;7.37;2.23;;;;;;;3.66;77.04;96709.69;5003181;28;20602;-64
2023/12/22 04:51:44;;;;;;;10.33;3.10;;;;;;;3.65;76.93;96695.28;4995172;28;20201;-65
2023/12/22 04:54:12;;;;;;;12.73;2.30;;;;;;;3.62;76.72;96700.50;4993929;28;20204;-63
2023/12/22 04:56:41;;;;;;;10.57;2.80;;;;;;;3.58;77.04;96706.59;4990979;28;20236;-61
2023/12/22 04:59:09;;;;;;;8.70;1.77;;;;;;;3.54;77.25;96688.06;4993513;28;20222;-64
2023/12/22 05:01:37;;;;;;;10.50;2.57;;;;;;;3.46;78.19;96714.66;4993932;28;20643;-62
2023/12/22 05:04:05;;;;;;;8.60;2.40;;;;;;;3.42;78.00;96729.22;4995536;28;20750;-64
2023/12/22 05:06:38;;;;;;;9.73;2.13;;;;;;;3.35;78.15;96715.91;4995914;28;20212;-63
2023/12/22 05:09:06;;;;;;;8.83;1.93;;;;;;;3.34;78.65;96715.94;4998718;28;20977;-65
2023/12/22 05:11:34;;;;;;;6.03;1.87;;;;;;;3.33;78.57;96750.75;4996383;28;20204;-64
2023/12/22 05:14:03;;;;;;;7.13;2.40;;;;;;;3.30;78.65;96729.66;4994271;28;20702;-63
2023/12/22 05:16:31;;;;;;;6.03;2.17;;;;;;;3.28;78.68;96726.38;4991509;28;20215;-62
2023/12/22 05:18:59;;;;;;;9.33;2.57;;;;;;;3.30;77.93;96734.75;4994243;28;20200;-64
2023/12/22 05:21:28;;;;;;;11.53;2.60;;;;;;;3.30;78.38;96734.75;4992448;28;20333;-63
2023/12/22 05:23:56;;;;;;;7.67;1.73;;;;;;;3.30;78.52;96743.22;4997407;28;20311;-65
2023/12/22 05:26:25;;;;;;;9.73;2.60;;;;;;;3.32;78.39;96738.91;4994146;28;20621;-64
2023/12/22 05:28:53;;;;;;;7.73;2.47;;;;;;;3.33;78.45;96750.75;4996732;28;20217;-63
2023/12/22 05:31:22;;;;;;;8.77;2.37;;;;;;;3.33;78.54;96729.56;4996639;28;20262;-63
2023/12/22 05:33:50;;;;;;;6.23;2.00;;;;;;;3.32;78.61;96753.34;4988108;28;20236;-63
2023/12/22 05:36:18;;;;;;;7.93;2.17;;;;;;;3.31;78.38;96751.66;4994719;28;20204;-63
2023/12/22 05:38:47;;;;;;;7.13;2.87;;;;;;;3.30;78.63;96766.13;4991277;28;20196;-65
2023/12/22 05:41:15;;;;;;;11.27;2.73;;;;;;;3.29;78.71;96753.47;4988255;28;20204;-61
2023/12/22 05:43:44;;;;;;;8.87;2.57;;;;;;;3.29;79.04;96753.47;4993122;28;20204;-63
2023/12/22 05:46:12;;;;;;;9.73;3.33;;;;;;;3.29;79.30;96768.72;4989812;28;20610;-63
2023/12/22 05:48:41;;;;;;;7.30;2.13;;;;;;;3.28;78.97;96772.16;4995859;28;20210;-61
2023/12/22 05:51:13;;;;;;;10.87;3.43;;;;;;;3.24;79.85;96773.97;4993354;28;20219;-63
2023/12/22 05:53:41;;;;;;;8.63;2.67;;;;;;;3.17;79.48;96777.63;4991451;28;20215;-64
2023/12/22 05:56:18;;;;;;;12.10;2.63;;;;;;;3.12;80.27;96769.28;4996374;28;20235;-62
2023/12/22 05:58:47;;;;;;;11.47;2.73;;;;;;;3.11;79.65;96788.81;4996154;28;20231;-63
2023/12/22 06:01:17;;;;;;;10.30;2.87;;;;;;;3.09;79.38;96777.88;4997856;28;20703;-62
2023/12/22 06:03:47;;;;;;;8.10;2.90;;;;;;;3.11;79.42;96790.53;4989109;28;20204;-64
2023/12/22 06:06:15;;;;;;;9.43;2.27;;;;;;;3.13;77.93;96776.91;4995215;28;20580;-64
2023/12/22 06:08:43;;;;;;;9.53;2.60;;;;;;;3.13;78.29;96763.34;4985371;28;20215;-62
2023/12/22 06:11:11;;;;;;;9.20;3.27;;;;;;;3.17;78.07;96780.16;4995136;28;20207;-63
2023/12/22 06:13:40;;;;;;;10.63;2.90;;;;;;;3.19;77.32;96786.00;4989709;28;20219;-62
2023/12/22 06:16:11;;;;;;;10.93;2.83;;;;;;;3.21;76.15;96796.97;4992137;28;20236;-62
2023/12/22 06:18:38;;;;;;;8.23;2.90;;;;;;;3.25;74.53;96780.72;4991810;28;20207;-60
2023/12/22 06:21:08;;;;;;;8.27;2.63;;;;;;;3.32;74.36;96783.88;4993814;28;20282;-68
2023/12/22 06:23:37;;;;;;;11.40;2.87;;;;;;;3.35;73.67;96784.63;4996794;28;20208;-63
2023/12/22 06:26:09;;;;;;;8.20;2.50;;;;;;;3.39;73.49;96795.50;4992406;28;20656;-65
2023/12/22 06:28:39;;;;;;;9.20;2.40;;;;;;;3.41;72.33;96782.72;4991679;28;20265;-62
2023/12/22 06:31:08;;;;;;;12.33;2.20;;;;;;;3.44;71.45;96782.63;4986787;28;20208;-65
2023/12/22 06:33:37;;;;;;;13.57;2.73;;;;;;;3.47;71.48;96802.88;4994516;28;20311;-63
2023/12/22 06:36:05;;;;;;;10.23;2.80;;;;;;;3.48;70.50;96805.34;4990937;28;20574;-64
2023/12/22 06:38:35;;;;;;;7.73;2.33;;;;;;;3.52;70.05;96808.63;4981772;28;20584;-61
2023/12/22 06:41:03;;;;;;;8.73;2.53;;;;;;;3.52;68.82;96806.06;4990981;28;20285;-66
2023/12/22 06:43:31;;;;;;;12.10;2.23;;;;;;;3.55;67.19;96793.25;4991821;28;20200;-62
2023/12/22 06:45:59;;;;;;;8.87;2.23;;;;;;;3.58;67.08;96777.88;4992110;28;20211;-64
2023/12/22 06:48:29;;;;;;;12.87;2.90;;;;;;;3.59;66.25;96792.25;4994223;28;20239;-63
2023/12/22 06:50:57;;;;;;;7.23;2.17;;;;;;;3.60;65.05;96788.81;4987844;28;20689;-63
2023/12/22 06:53:25;;;;;;;8.70;2.33;;;;;;;3.63;62.23;96814.97;4992620;28;20745;-63
2023/12/22 06:55:55;;;;;;;5.50;2.00;;;;;;;3.64;61.18;96808.19;4998799;28;20207;-62
2023/12/22 06:58:25;;;;;;;6.80;2.37;;;;;;;3.67;60.72;96810.63;4992609;28;20601;-64
2023/12/22 07:00:53;;;;;;;8.93;2.47;;;;;;;3.66;59.94;96806.41;4993606;28;20310;-64
2023/12/22 07:03:21;;;;;;;8.73;2.57;;;;;;;3.66;58.58;96801.31;4987594;28;20196;-64
2023/12/22 07:05:50;;;;;;;9.30;2.57;;;;;;;3.66;58.45;96808.97;4991722;28;20208;-63
2023/12/22 07:08:18;;;;;;;10.83;2.33;;;;;;;3.67;57.97;96840.34;4992426;28;20216;-63
2023/12/22 07:10:46;;;;;;;8.97;1.93;;;;;;;3.66;58.29;96828.50;4988590;28;20208;-62
2023/12/22 07:13:16;;;;;;;13.17;3.00;;;;;;;3.68;58.28;96842.00;4993965;28;20702;-63
2023/12/22 07:15:45;;;;;;;9.23;2.43;;;;;;;3.66;59.21;96847.16;4987469;28;20200;-62
2023/12/22 07:18:13;;;;;;;11.47;2.83;;;;;;;3.66;59.63;96851.41;4993896;28;20207;-63
2023/12/22 07:20:41;;;;;;;8.60;2.60;;;;;;;3.63;59.85;96848.06;4994899;28;20207;-64
2023/12/22 07:23:10;;;;;;;7.40;2.23;;;;;;;3.62;60.50;96840.50;4994494;28;20219;-63
2023/12/22 07:25:39;;;;;;;11.03;2.07;;;;;;;3.58;60.68;96838.97;4994826;28;20199;-63
2023/12/22 07:28:07;;;;;;;7.27;2.37;;;;;;;3.55;61.26;96856.88;4995168;28;20200;-62
2023/12/22 07:30:37;;;;;;;10.50;2.37;;;;;;;3.55;61.00;96844.16;4995953;28;20351;-61
2023/12/22 07:33:05;;;;;;;8.23;1.90;;;;;;;3.49;61.09;96857.91;4996598;28;20254;-63
2023/12/22 07:35:34;;;;;;;4.80;2.13;;;;;;;3.51;60.83;96845.97;4992293;28;20200;-63
2023/12/22 07:38:03;;;;;;;7.40;1.97;;;;;;;3.52;61.27;96860.34;4994418;28;20212;-61
2023/12/22 07:40:31;;;;;;;7.60;2.53;;;;;;;3.51;59.39;96856.16;4995002;28;20303;-67
2023/12/22 07:42:59;;;;;;;10.23;2.10;;;;;;;3.50;60.65;96874.00;5000243;28;20208;-63
2023/12/22 07:45:28;;;;;;;9.53;2.67;;;;;;;3.49;59.86;96893.53;5001375;28;20215;-61
2023/12/22 07:47:57;;;;;;;11.67;2.53;;;;;;;3.46;60.38;96872.44;4995408;28;20228;-62
2023/12/22 07:50:28;;;;;;;5.37;2.37;;;;;;;3.43;59.82;96892.94;4991902;28;20235;-62
2023/12/22 07:52:58;;;;;;;8.20;2.50;;;;;;;3.38;60.38;96899.00;4988585;28;20263;-62
2023/12/22 07:55:31;;;;;;;8.87;2.07;;;;;;;3.31;60.84;96899.25;4991206;28;20223;-64
2023/12/22 07:57:59;;;;;;;8.63;2.23;;;;;;;3.22;61.25;96889.38;4998562;28;20216;-63
2023/12/22 08:00:27;;;;;;;7.33;2.10;;;;;;;3.21;60.43;96898.75;4992681;28;20204;-63
2023/12/22 08:02:57;;;;;;;8.50;2.27;;;;;;;3.22;61.26;96897.84;4993496;28;20231;-63
2023/12/22 08:05:25;;;;;;;7.20;1.90;;;;;;;3.22;60.88;96891.94;4992144;28;20196;-62
2023/12/22 08:07:53;;;;;;;9.27;2.83;;;;;;;3.20;60.55;96884.34;4991843;28;20223;-59
2023/12/22 08:10:21;;;;;;;6.73;1.80;;;;;;;3.20;60.65;96869.06;4997733;28;20251;-61
2023/12/22 08:12:49;;;;;;;9.33;2.37;;;;;;;3.21;59.58;96882.66;4991756;28;20220;-62
2023/12/22 08:15:17;;;;;;;6.63;2.00;;;;;;;3.23;59.37;96904.59;4995447;28;20251;-64
2023/12/22 08:17:57;;;;;;;7.43;2.40;;;;;;;3.27;59.55;96890.06;4994381;28;20213;-63
2023/12/22 08:20:25;;;;;;;8.23;2.50;;;;;;;3.28;59.10;96912.94;4991864;28;20663;-65
2023/12/22 08:23:00;;;;;;;12.83;2.73;;;;;;;3.24;59.46;96911.38;4991640;28;20222;-61
2023/12/22 08:25:34;;;;;;;8.43;1.60;;;;;;;3.25;60.76;96932.53;5002654;28;20204;-64
2023/12/22 08:28:02;;;;;;;6.50;2.03;;;;;;;3.18;61.37;96943.81;4989270;28;20668;-63
2023/12/22 08:30:30;;;;;;;8.23;2.10;;;;;;;3.13;62.31;96938.88;4996299;28;20212;-64
2023/12/22 08:33:00;;;;;;;9.97;2.07;;;;;;;3.06;63.24;96930.59;5000743;28;20219;-62
2023/12/22 08:35:28;;;;;;;12.07;2.40;;;;;;;3.06;64.51;96940.75;4991115;28;20208;-63
2023/12/22 08:37:57;;;;;;;8.40;2.50;;;;;;;3.04;65.03;96949.31;4992874;28;20259;-64
2023/12/22 08:40:26;;;;;;;9.10;2.53;;;;;;;3.03;65.55;96938.31;4992430;28;20573;-63
2023/12/22 08:42:59;;;;;;;7.23;2.30;;;;;;;2.97;65.87;96961.38;4994063;28;20298;-63
2023/12/22 08:45:29;;;;;;;5.77;2.20;;;;;;;2.93;66.80;96951.38;4991785;28;20565;-64
2023/12/22 08:47:57;;;;;;;7.67;2.40;;;;;;;2.93;66.86;96946.28;4988244;28;20242;-65
2023/12/22 08:50:27;;;;;;;5.73;1.93;;;;;;;2.96;66.56;96953.81;4991985;28;20251;-65
2023/12/22 08:52:55;;;;;;;11.23;2.53;;;;;;;2.96;66.76;96953.81;4990503;28;20641;-63
2023/12/22 08:55:23;;;;;;;6.37;1.80;;;;;;;2.95;67.18;96957.25;4987981;28;20212;-63
2023/12/22 08:57:51;;;;;;;6.87;2.13;;;;;;;2.95;67.34;96962.34;4990921;28;20231;-64
2023/12/22 09:00:29;;;;;;;8.93;3.00;;;;;;;2.94;67.82;96950.47;4992707;28;20278;-64
2023/12/22 09:02:57;;;;;;;10.27;2.33;;;;;;;2.88;68.31;96937.09;4989916;28;20211;-66
2023/12/22 09:05:26;;;;;;;7.43;2.40;;;;;;;2.93;67.55;96943.72;4984971;28;20196;-61
2023/12/22 09:07:54;;;;;;;9.67;2.70;;;;;;;2.99;67.29;96941.00;4985722;28;20255;-61
2023/12/22 09:10:22;;;;;;;6.20;2.33;;;;;;;3.05;67.10;96935.72;4990613;28;20600;-66
2023/12/22 09:12:51;;;;;;;8.53;2.30;;;;;;;3.08;67.47;96922.91;4990569;28;20235;-62
2023/12/22 09:15:18;;;;;;;6.50;2.17;;;;;;;3.12;66.95;96924.47;4988415;28;20231;-65
2023/12/22 09:17:46;;;;;;;9.37;1.90;;;;;;;3.14;66.80;96928.63;4992951;28;20689;-65
2023/12/22 09:20:15;;;;;;;13.57;2.43;;;;;;;3.19;66.38;96925.09;4990779;28;20218;-64
2023/12/22 09:22:44;;;;;;;5.83;2.33;;;;;;;3.21;65.82;96921.63;4991668;28;20239;-63
2023/12/22 09:25:12;;;;;;;8.37;2.13;;;;;;;3.19;65.60;96903.03;4985739;28;20215;-65
2023/12/22 09:27:40;;;;;;;8.30;2.00;;;;;;;3.20;66.31;96919.94;4997162;28;20941;-63
2023/12/22 09:30:09;;;;;;;8.57;1.93;;;;;;;3.26;65.87;96896.03;4990517;28;20239;-62
2023/12/22 09:32:37;;;;;;;6.00;2.40;;;;;;;3.32;64.90;96903.47;4983536;28;20299;-63
2023/12/22 09:35:06;;;;;;;7.23;1.93;;;;;;;3.31;64.79;96900.06;4992804;28;20216;-62
2023/12/22 09:37:33;;;;;;;6.47;2.00;;;;;;;3.34;64.10;96881.34;5002372;28;20709;-63
2023/12/22 09:40:07;;;;;;;7.90;2.57;;;;;;;3.43;64.32;96875.94;4994990;28;20226;-63
2023/12/22 09:42:35;;;;;;;6.63;2.10;;;;;;;3.54;63.13;96860.31;4994512;28;20652;-63
2023/12/22 09:45:06;;;;;;;4.63;1.40;;;;;;;3.59;62.72;96879.63;4994190;28;20196;-64
2023/12/22 09:47:35;;;;;;;7.50;2.23;;;;;;;3.64;62.09;96871.81;4997183;28;20576;-63
2023/12/22 09:50:03;;;;;;;7.87;2.27;;;;;;;3.68;61.57;96882.72;4988236;28;20204;-62
2023/12/22 09:52:33;;;;;;;8.67;2.27;;;;;;;3.68;62.00;96867.44;4995162;28;20610;-65
2023/12/22 09:55:02;;;;;;;9.07;2.57;;;;;;;3.67;61.72;96863.25;4991999;28;20216;-62
2023/12/22 09:57:32;;;;;;;7.50;2.47;;;;;;;3.68;62.07;96870.00;4990279;28;20222;-64
2023/12/22 10:00:00;;;;;;;9.13;2.00;;;;;;;3.67;62.38;96850.53;4990660;28;20659;-64
2023/12/22 10:02:30;;;;;;;10.53;2.47;;;;;;;3.66;62.15;96857.34;5000001;28;20582;-63
2023/12/22 10:04:58;;;;;;;6.37;1.77;;;;;;;3.61;62.62;96846.50;4995842;28;20663;-62
2023/12/22 10:07:27;;;;;;;8.87;2.20;;;;;;;3.57;62.11;96835.59;4993850;28;20258;-61
2023/12/22 10:09:56;;;;;;;6.73;2.13;;;;;;;3.42;71.29;96876.00;4991765;28;20207;-61
2023/12/22 10:12:26;;;;;;;7.20;2.23;;;;;;;2.81;78.68;96866.97;4992645;28;20233;-61
2023/12/22 10:14:56;;;;;;;4.17;1.20;;;;;;;2.41;81.59;96874.97;4993168;28;20216;-65
2023/12/22 10:17:25;;;;;;;3.47;0.83;;;;;;;1.89;84.65;96897.63;4990047;28;20683;-62
2023/12/22 10:19:53;;;;;;;2.03;0.90;;;;;;;1.52;87.03;96922.34;4991191;28;20206;-62
2023/12/22 10:22:23;;;;;;;3.63;1.10;;;;;;;1.27;89.67;96914.50;4996913;28;20235;-63
2023/12/22 10:24:52;;;;;;;3.13;1.10;;;;;;;1.10;90.26;96933.50;5000312;28;20219;-62
2023/12/22 10:27:22;;;;;;;5.27;1.33;;;;;;;0.96;91.91;96954.13;4994880;28;20638;-61
2023/12/22 10:29:50;;;;;;;2.17;1.07;;;;;;;0.82;92.59;96950.25;4994068;28;20208;-62
2023/12/22 10:32:21;;;;;;;4.70;1.00;;;;;;;0.55;93.19;96957.56;4995758;28;20570;-62
2023/12/22 10:34:49;;;;;;;2.00;1.60;;;;;;;0.35;95.88;96960.53;4992246;28;20673;-60
2023/12/22 10:37:17;;;;;;;1.80;0.60;;;;;;;0.14;97.35;96961.78;4997732;28;20659;-62
2023/12/22 10:39:48;;;;;;;1.63;0.83;;;;;;;0.05;98.29;96956.06;4991376;28;20239;-64
2023/12/22 10:42:17;;;;;;;0.60;0.50;;;;;;;-0.06;99.85;96947.00;4990526;28;20207;-63
2023/12/22 10:44:46;;;;;;;1.33;0.60;;;;;;;-0.06;100.00;96953.75;4988961;28;20204;-62
2023/12/22 10:47:18;;;;;;;1.33;0.80;;;;;;;-0.07;100.00;96958.00;4991981;28;20214;-62
2023/12/22 10:49:48;;;;;;;1.00;0.70;;;;;;;-0.11;100.00;96948.78;4993384;28;20691;-60
2023/12/22 10:52:17;;;;;;;1.13;0.70;;;;;;;-0.15;100.00;96944.63;4991164;28;20322;-62
2023/12/22 10:54:45;;;;;;;1.63;0.90;;;;;;;-0.21;100.00;96939.69;4996895;28;20200;-62
2023/12/22 10:57:13;;;;;;;0.83;0.67;;;;;;;-0.18;100.00;96919.41;4992060;28;20561;-62
2023/12/22 10:59:46;;;;;;;1.43;0.80;;;;;;;-0.14;100.00;96913.41;4987133;28;20655;-68
2023/12/22 11:02:28;;;;;;;2.87;1.10;;;;;;;-0.12;100.00;96906.63;4988099;28;20199;-61
2023/12/22 11:05:04;;;;;;;6.40;1.17;;;;;;;-0.09;100.00;96893.91;4993175;28;20208;-59
2023/12/22 11:07:34;;;;;;;7.50;1.30;;;;;;;0.02;100.00;96901.28;4989652;28;20211;-63
2023/12/22 11:10:06;;;;;;;2.63;1.43;;;;;;;0.06;100.00;96897.00;4993587;28;20662;-61
2023/12/22 11:12:35;;;;;;;3.30;1.00;;;;;;;0.10;100.00;96879.16;4984781;28;20697;-63
2023/12/22 11:15:06;;;;;;;5.17;1.37;;;;;;;0.17;100.00;96869.75;4984955;28;20215;-63
2023/12/22 11:17:35;;;;;;;2.93;0.97;;;;;;;0.28;100.00;96872.88;4989300;28;20651;-62
2023/12/22 11:20:07;;;;;;;4.17;1.50;;;;;;;0.31;100.00;96856.81;4992046;28;20204;-61
2023/12/22 11:22:37;;;;;;;11.20;1.60;;;;;;;0.31;99.36;96844.97;4987612;28;20239;-63
2023/12/22 11:25:07;;;;;;;6.33;1.50;;;;;;;0.39;99.56;96855.75;4987147;28;20200;-67
2023/12/22 11:27:37;;;;;;;6.33;1.70;;;;;;;0.46;99.08;96854.75;4989145;28;20211;-63
2023/12/22 11:30:08;;;;;;;5.00;1.80;;;;;;;0.54;98.54;96861.34;4987214;28;20769;-62
2023/12/22 11:32:36;;;;;;;3.23;1.37;;;;;;;0.63;98.65;96863.69;4995453;28;20573;-62
2023/12/22 11:35:09;;;;;;;4.47;1.70;;;;;;;0.74;97.62;96866.78;4994425;28;20560;-63
2023/12/22 11:37:38;;;;;;;5.13;1.50;;;;;;;0.74;96.19;96859.19;4990010;28;20306;-61
2023/12/22 11:40:08;;;;;;;4.43;1.30;;;;;;;0.78;97.89;96840.50;4989171;28;20250;-61
2023/12/22 11:42:42;;;;;;;2.00;1.47;;;;;;;0.83;97.06;96850.53;4989629;28;20254;-63
2023/12/22 11:45:16;;;;;;;6.57;1.40;;;;;;;0.76;96.64;96837.16;4990269;28;20204;-62
2023/12/22 11:47:44;;;;;;;3.07;1.40;;;;;;;0.79;97.59;96861.59;4991181;28;20196;-62